Time;durP1;ratioP1;P1;durP2;ratioP2;P2;SDS_P1;SDS_P2;PMS_P1;PMS_P2;Temp;Humidity;BMP_temperature;BMP_pressure;BME280_temperature;BME280_humidity;BME280_pressure;Samples;Min_cycle;Max_cycle;Signal;HPM_P1;HPM_P2
2022/03/22 00:00:44;;;;;;;;;;;9.60;24.20;;;;;;4995004;28;20247;-62
2022/03/22 00:03:10;;;;;;;;;;;9.70;24.20;;;;;;4994850;28;19909;-63
2022/03/22 00:05:40;;;;;;;;;;;9.80;24.00;;;;;;4993284;28;19910;-63
2022/03/22 00:08:06;;;;;;;;;;;9.70;23.90;;;;;;4994552;28;19968;-61
2022/03/22 00:10:32;;;;;;;;;;;9.70;23.80;;;;;;4995042;28;19914;-62
2022/03/22 00:12:57;;;;;;;;;;;9.70;23.70;;;;;;4994440;28;20534;-61
2022/03/22 00:15:24;;;;;;;;;;;9.70;23.70;;;;;;4994521;28;19921;-62
2022/03/22 00:17:50;;;;;;;;;;;9.70;23.80;;;;;;4993850;28;19917;-61
2022/03/22 00:20:16;;;;;;;;;;;9.70;23.90;;;;;;4994235;28;20269;-61
2022/03/22 00:22:42;;;;;;;;;;;9.60;23.90;;;;;;4994052;28;19964;-62
2022/03/22 00:25:09;;;;;;;;;;;9.70;23.70;;;;;;4994361;28;19909;-63
2022/03/22 00:27:53;;;;;;;;;;;9.60;23.70;;;;;;4994122;28;19917;-63
2022/03/22 00:30:30;;;;;;;;;;;9.60;23.70;;;;;;4993991;28;19917;-62
2022/03/22 00:32:56;;;;;;;;;;;9.60;23.80;;;;;;4994234;28;20281;-62
2022/03/22 00:35:26;;;;;;;;;;;9.60;23.80;;;;;;4993998;28;19910;-63
2022/03/22 00:37:53;;;;;;;;;;;9.50;23.90;;;;;;4993640;28;19925;-63
2022/03/22 00:40:19;;;;;;;;;;;9.60;23.80;;;;;;4993887;28;19914;-63
2022/03/22 00:42:48;;;;;;;;;;;9.60;23.90;;;;;;4993937;28;19952;-64
2022/03/22 00:45:17;;;;;;;;;;;9.60;23.90;;;;;;4993935;28;19909;-63
2022/03/22 00:47:47;;;;;;;;;;;9.60;24.00;;;;;;4993848;28;19910;-64
2022/03/22 00:50:13;;;;;;;;;;;9.50;24.10;;;;;;4993923;28;19957;-64
2022/03/22 00:52:39;;;;;;;;;;;9.50;24.10;;;;;;4992527;28;19909;-62
2022/03/22 00:55:05;;;;;;;;;;;9.50;24.10;;;;;;4994007;28;19917;-64
2022/03/22 00:57:32;;;;;;;;;;;9.50;24.10;;;;;;4994264;28;19910;-62
2022/03/22 01:00:06;;;;;;;;;;;9.40;24.10;;;;;;4994064;28;19910;-63
2022/03/22 01:02:36;;;;;;;;;;;9.40;24.30;;;;;;4994105;28;19917;-63
2022/03/22 01:05:07;;;;;;;;;;;9.40;24.70;;;;;;4994015;28;20340;-63
2022/03/22 01:07:35;;;;;;;;;;;9.40;24.30;;;;;;4994012;28;20354;-62
2022/03/22 01:10:01;;;;;;;;;;;9.30;24.60;;;;;;4994122;28;19944;-62
2022/03/22 01:12:27;;;;;;;;;;;9.30;24.50;;;;;;4994175;28;19913;-61
2022/03/22 01:14:52;;;;;;;;;;;9.30;24.50;;;;;;4994301;28;19917;-62
2022/03/22 01:17:19;;;;;;;;;;;9.30;24.50;;;;;;4994018;28;20319;-64
2022/03/22 01:19:46;;;;;;;;;;;9.40;24.40;;;;;;4994051;28;19920;-61
2022/03/22 01:22:11;;;;;;;;;;;9.40;24.40;;;;;;4994143;28;19913;-62
2022/03/22 01:24:37;;;;;;;;;;;9.30;24.50;;;;;;4993873;28;19921;-62
2022/03/22 01:27:03;;;;;;;;;;;9.30;24.60;;;;;;4993813;28;19910;-63
2022/03/22 01:29:28;;;;;;;;;;;9.30;24.60;;;;;;4994685;28;20262;-62
2022/03/22 01:31:55;;;;;;;;;;;9.30;24.80;;;;;;4997715;28;20259;-62
2022/03/22 01:34:20;;;;;;;;;;;9.30;24.60;;;;;;4998323;28;20341;-62
2022/03/22 01:36:46;;;;;;;;;;;9.30;24.70;;;;;;4997974;28;19965;-63
2022/03/22 01:39:12;;;;;;;;;;;9.30;24.70;;;;;;4997912;28;19964;-61
2022/03/22 01:41:37;;;;;;;;;;;9.40;24.80;;;;;;4997806;28;19916;-62
2022/03/22 01:44:03;;;;;;;;;;;9.30;24.80;;;;;;4997624;28;19917;-61
2022/03/22 01:46:29;;;;;;;;;;;9.30;24.90;;;;;;4997584;28;19910;-62
2022/03/22 01:48:54;;;;;;;;;;;9.30;24.80;;;;;;4997630;28;19964;-62
2022/03/22 01:51:23;;;;;;;;;;;9.30;24.90;;;;;;4997827;28;20004;-62
2022/03/22 01:53:49;;;;;;;;;;;9.30;25.10;;;;;;4997223;28;20270;-63
2022/03/22 01:56:15;;;;;;;;;;;9.30;25.20;;;;;;4997260;28;19925;-63
2022/03/22 01:58:41;;;;;;;;;;;9.20;25.20;;;;;;4997123;28;19914;-62
2022/03/22 02:06:36;;;;;;;;;;;9.10;25.30;;;;;;4997519;28;20041;-64
2022/03/22 02:09:02;;;;;;;;;;;9.10;25.50;;;;;;4997275;28;20004;-62
2022/03/22 02:11:28;;;;;;;;;;;9.10;25.60;;;;;;4997275;28;19953;-61
2022/03/22 02:13:55;;;;;;;;;;;9.20;25.60;;;;;;4997529;28;19953;-65
2022/03/22 02:16:21;;;;;;;;;;;9.30;25.30;;;;;;4997130;28;20369;-63
2022/03/22 02:18:48;;;;;;;;;;;9.20;25.40;;;;;;4996881;28;19910;-62
2022/03/22 02:21:14;;;;;;;;;;;9.20;25.50;;;;;;4997014;28;19920;-63
2022/03/22 02:23:47;;;;;;;;;;;9.10;25.60;;;;;;4996966;28;19964;-63
2022/03/22 02:26:13;;;;;;;;;;;9.10;25.70;;;;;;4997212;28;20266;-63
2022/03/22 02:28:38;;;;;;;;;;;9.10;25.70;;;;;;4996960;28;19918;-62
2022/03/22 02:31:04;;;;;;;;;;;9.10;25.70;;;;;;4996836;28;19913;-63
2022/03/22 02:33:30;;;;;;;;;;;9.20;25.70;;;;;;4996846;28;19913;-65
2022/03/22 02:35:55;;;;;;;;;;;9.20;25.80;;;;;;4996780;28;20311;-63
2022/03/22 02:38:21;;;;;;;;;;;9.20;25.80;;;;;;4995182;28;19972;-63
2022/03/22 02:40:46;;;;;;;;;;;9.20;25.90;;;;;;4995978;28;20017;-64
2022/03/22 02:43:12;;;;;;;;;;;9.10;26.00;;;;;;4996587;28;19917;-64
2022/03/22 02:45:37;;;;;;;;;;;9.10;26.00;;;;;;4996739;28;19964;-65
2022/03/22 02:48:03;;;;;;;;;;;9.10;26.10;;;;;;4996563;28;19922;-64
2022/03/22 02:50:29;;;;;;;;;;;9.10;26.10;;;;;;4996771;28;20309;-63
2022/03/22 02:52:54;;;;;;;;;;;9.10;26.20;;;;;;4996332;28;20366;-63
2022/03/22 02:55:21;;;;;;;;;;;9.10;26.20;;;;;;4996526;28;19960;-62
2022/03/22 02:57:46;;;;;;;;;;;9.10;26.10;;;;;;4996565;28;19910;-62
2022/03/22 03:00:12;;;;;;;;;;;9.20;26.00;;;;;;4996434;28;19910;-63
2022/03/22 03:02:46;;;;;;;;;;;9.20;26.10;;;;;;4994845;28;20393;-63
2022/03/22 03:05:12;;;;;;;;;;;9.10;26.00;;;;;;4996303;28;19949;-62
2022/03/22 03:07:37;;;;;;;;;;;9.10;26.20;;;;;;4996391;28;19972;-62
2022/03/22 03:10:04;;;;;;;;;;;9.10;26.40;;;;;;4995047;28;19973;-61
2022/03/22 03:12:29;;;;;;;;;;;9.10;26.30;;;;;;4996174;28;19933;-61
2022/03/22 03:14:55;;;;;;;;;;;9.20;26.40;;;;;;4996007;28;20358;-62
2022/03/22 03:17:20;;;;;;;;;;;9.20;26.30;;;;;;4996106;28;19941;-61
2022/03/22 03:19:46;;;;;;;;;;;9.10;26.30;;;;;;4996092;28;20345;-62
2022/03/22 03:22:11;;;;;;;;;;;9.10;26.30;;;;;;4996132;28;19997;-62
2022/03/22 03:24:37;;;;;;;;;;;9.10;26.30;;;;;;4995681;28;20334;-63
2022/03/22 03:27:03;;;;;;;;;;;9.10;26.30;;;;;;4996232;28;19925;-61
2022/03/22 03:29:28;;;;;;;;;;;9.10;26.20;;;;;;4995939;28;19964;-61
2022/03/22 03:31:54;;;;;;;;;;;9.20;26.30;;;;;;4995835;28;19918;-62
2022/03/22 03:34:19;;;;;;;;;;;9.20;26.20;;;;;;4995940;28;19910;-62
2022/03/22 03:36:45;;;;;;;;;;;9.20;26.30;;;;;;4995536;28;19918;-62
2022/03/22 03:39:11;;;;;;;;;;;9.10;26.30;;;;;;4995710;28;19920;-62
2022/03/22 03:41:56;;;;;;;;;;;9.10;26.40;;;;;;4995716;28;19914;-62
2022/03/22 03:47:07;;;;;;;;;;;9.10;26.60;;;;;;4995808;28;20293;-62
2022/03/22 03:49:34;;;;;;;;;;;9.10;26.50;;;;;;4995145;28;20012;-62
2022/03/22 03:52:00;;;;;;;;;;;9.10;26.50;;;;;;4995050;28;19917;-62
2022/03/22 03:54:26;;;;;;;;;;;9.10;26.60;;;;;;4995389;28;19910;-64
2022/03/22 03:56:51;;;;;;;;;;;9.10;26.70;;;;;;4995368;28;20362;-62
2022/03/22 03:59:17;;;;;;;;;;;9.20;26.60;;;;;;4995021;28;20257;-62
2022/03/22 04:01:44;;;;;;;;;;;9.10;26.80;;;;;;4994861;28;19956;-62
2022/03/22 04:04:10;;;;;;;;;;;9.10;27.50;;;;;;4994820;28;19909;-62
2022/03/22 04:06:35;;;;;;;;;;;8.60;28.20;;;;;;4995001;28;19932;-61
2022/03/22 04:09:01;;;;;;;;;;;8.60;28.50;;;;;;4994798;28;19953;-62
2022/03/22 04:11:26;;;;;;;;;;;8.40;29.30;;;;;;4994920;28;19964;-62
2022/03/22 04:13:52;;;;;;;;;;;8.30;29.00;;;;;;4994757;28;19910;-62
2022/03/22 04:16:17;;;;;;;;;;;8.30;29.30;;;;;;4995107;28;20258;-62
2022/03/22 04:18:43;;;;;;;;;;;8.40;28.70;;;;;;4994728;28;20309;-62
2022/03/22 04:21:08;;;;;;;;;;;8.40;29.20;;;;;;4994511;28;19910;-63
2022/03/22 04:23:34;;;;;;;;;;;8.30;29.20;;;;;;4994548;28;20354;-62
2022/03/22 04:26:00;;;;;;;;;;;8.30;29.00;;;;;;4994271;28;19928;-64
2022/03/22 04:33:53;;;;;;;;;;;8.60;28.10;;;;;;4994917;28;19917;-62
2022/03/22 04:36:19;;;;;;;;;;;8.70;27.80;;;;;;4994138;28;19910;-62
2022/03/22 04:38:44;;;;;;;;;;;8.80;28.20;;;;;;4994509;28;19964;-63
2022/03/22 04:41:10;;;;;;;;;;;8.80;28.10;;;;;;4994367;28;20247;-64
2022/03/22 04:43:35;;;;;;;;;;;8.80;27.60;;;;;;4994558;28;19909;-63
2022/03/22 04:46:01;;;;;;;;;;;9.00;27.20;;;;;;4994190;28;20076;-62
2022/03/22 04:48:27;;;;;;;;;;;9.00;27.10;;;;;;4994293;28;19918;-62
2022/03/22 04:56:43;;;;;;;;;;;9.10;27.20;;;;;;4994234;28;20358;-62
2022/03/22 04:59:06;;;;;;;;;;;9.20;27.00;;;;;;4993972;28;20316;-62
2022/03/22 05:01:32;;;;;;;;;;;9.20;27.20;;;;;;4994225;28;19909;-63
2022/03/22 05:03:57;;;;;;;;;;;9.10;27.30;;;;;;4993347;28;20286;-63
2022/03/22 05:06:25;;;;;;;;;;;9.10;27.30;;;;;;4993823;28;20326;-62
2022/03/22 05:08:54;;;;;;;;;;;9.10;27.20;;;;;;4993997;28;20025;-62
2022/03/22 05:11:20;;;;;;;;;;;9.10;27.20;;;;;;4994125;28;19914;-62
2022/03/22 05:13:45;;;;;;;;;;;9.10;27.20;;;;;;4993478;28;19978;-63
2022/03/22 05:16:11;;;;;;;;;;;9.20;27.20;;;;;;4993862;28;19932;-62
2022/03/22 05:18:36;;;;;;;;;;;9.10;26.90;;;;;;4993855;28;19957;-63
2022/03/22 05:21:06;;;;;;;;;;;9.00;27.10;;;;;;4993555;28;20409;-61
2022/03/22 05:23:34;;;;;;;;;;;9.10;27.40;;;;;;4993547;28;20333;-61
2022/03/22 05:26:00;;;;;;;;;;;9.10;27.50;;;;;;4993733;28;19913;-63
2022/03/22 05:28:26;;;;;;;;;;;9.10;27.00;;;;;;4993780;28;19918;-62
2022/03/22 05:30:52;;;;;;;;;;;9.10;27.40;;;;;;4993665;28;19920;-62
2022/03/22 05:33:17;;;;;;;;;;;9.10;27.20;;;;;;4993358;28;19917;-63
2022/03/22 05:35:43;;;;;;;;;;;9.10;27.20;;;;;;4992251;28;19921;-62
2022/03/22 05:38:09;;;;;;;;;;;9.20;27.20;;;;;;4993169;28;19948;-62
2022/03/22 05:40:34;;;;;;;;;;;9.10;27.20;;;;;;4993863;28;19956;-63
2022/03/22 05:43:00;;;;;;;;;;;9.10;27.40;;;;;;4993433;28;20001;-62
2022/03/22 05:45:26;;;;;;;;;;;9.20;27.30;;;;;;4993831;28;19996;-62
2022/03/22 05:47:53;;;;;;;;;;;9.10;27.50;;;;;;4993744;28;19910;-61
2022/03/22 05:50:18;;;;;;;;;;;9.10;27.30;;;;;;4993716;28;19914;-62
2022/03/22 05:52:45;;;;;;;;;;;9.20;27.00;;;;;;4993569;28;20275;-63
2022/03/22 05:55:12;;;;;;;;;;;9.20;27.20;;;;;;4993979;28;20295;-61
2022/03/22 05:57:37;;;;;;;;;;;9.30;26.80;;;;;;4993606;28;19913;-62
2022/03/22 06:00:04;;;;;;;;;;;9.30;26.90;;;;;;4993840;28;20330;-63
2022/03/22 06:02:29;;;;;;;;;;;9.40;27.20;;;;;;4993635;28;19988;-60
2022/03/22 06:04:55;;;;;;;;;;;9.30;27.30;;;;;;4993902;28;20277;-62
2022/03/22 06:07:21;;;;;;;;;;;9.30;27.30;;;;;;4993521;28;19910;-62
2022/03/22 06:09:47;;;;;;;;;;;9.30;27.20;;;;;;4994010;28;19925;-62
2022/03/22 06:12:14;;;;;;;;;;;9.30;27.20;;;;;;4993814;28;19910;-63
2022/03/22 06:14:40;;;;;;;;;;;9.40;27.40;;;;;;4993579;28;20048;-61
2022/03/22 06:17:06;;;;;;;;;;;9.30;27.20;;;;;;4995417;28;19917;-63
2022/03/22 06:19:32;;;;;;;;;;;9.30;27.00;;;;;;4997312;28;19910;-62
2022/03/22 06:21:57;;;;;;;;;;;9.30;27.40;;;;;;4997004;28;20008;-63
2022/03/22 06:24:23;;;;;;;;;;;9.40;27.20;;;;;;4997087;28;19909;-62
2022/03/22 06:26:48;;;;;;;;;;;9.40;27.20;;;;;;4997347;28;19913;-62
2022/03/22 06:29:14;;;;;;;;;;;9.50;27.40;;;;;;4997054;28;20000;-63
2022/03/22 06:31:40;;;;;;;;;;;9.40;27.30;;;;;;4996940;28;19957;-62
2022/03/22 06:34:05;;;;;;;;;;;9.50;26.70;;;;;;4996800;28;19910;-61
2022/03/22 06:36:31;;;;;;;;;;;9.50;27.10;;;;;;4995395;28;19964;-62
2022/03/22 06:38:56;;;;;;;;;;;9.70;27.30;;;;;;4996634;28;20322;-62
2022/03/22 06:41:22;;;;;;;;;;;9.90;27.00;;;;;;4996661;28;19933;-61
2022/03/22 06:43:47;;;;;;;;;;;10.20;26.20;;;;;;4996729;28;20290;-62
2022/03/22 06:46:13;;;;;;;;;;;10.50;25.90;;;;;;4996895;28;19916;-62
2022/03/22 06:48:38;;;;;;;;;;;10.70;25.90;;;;;;4996716;28;19965;-62
2022/03/22 06:51:04;;;;;;;;;;;11.00;25.70;;;;;;4995134;28;19914;-62
2022/03/22 06:53:29;;;;;;;;;;;11.30;25.30;;;;;;4996603;28;19916;-65
2022/03/22 06:55:55;;;;;;;;;;;11.40;25.30;;;;;;4996447;28;19993;-64
2022/03/22 06:58:22;;;;;;;;;;;11.70;25.20;;;;;;4996428;28;20426;-66
2022/03/22 07:00:48;;;;;;;;;;;12.10;35.00;;;;;;4996246;28;19922;-67
2022/03/22 07:03:14;;;;;;;;;;;12.20;27.20;;;;;;4996343;28;20522;-63
2022/03/22 07:05:42;;;;;;;;;;;12.10;26.70;;;;;;4995938;28;20055;-68
2022/03/22 07:08:08;;;;;;;;;;;12.60;30.10;;;;;;4994140;28;19974;-69
2022/03/22 07:10:34;;;;;;;;;;;12.80;27.20;;;;;;4995831;28;20012;-67
2022/03/22 07:13:04;;;;;;;;;;;13.10;26.80;;;;;;4996047;28;19941;-66
2022/03/22 07:15:35;;;;;;;;;;;13.00;27.40;;;;;;4996016;28;19913;-67
2022/03/22 07:18:01;;;;;;;;;;;13.00;26.80;;;;;;4995738;28;19964;-70
2022/03/22 07:20:27;;;;;;;;;;;13.10;26.50;;;;;;4996150;28;19917;-68
2022/03/22 07:22:53;;;;;;;;;;;13.40;25.60;;;;;;4995761;28;20013;-66
2022/03/22 07:25:19;;;;;;;;;;;13.30;26.60;;;;;;4996002;28;20029;-70
2022/03/22 07:27:45;;;;;;;;;;;13.50;25.30;;;;;;4994955;28;20401;-68
2022/03/22 07:30:11;;;;;;;;;;;13.70;26.30;;;;;;4995055;28;19922;-67
2022/03/22 07:32:37;;;;;;;;;;;13.70;24.90;;;;;;4994771;28;19916;-68
2022/03/22 07:35:03;;;;;;;;;;;13.50;23.40;;;;;;4995159;28;19917;-67
2022/03/22 07:37:28;;;;;;;;;;;13.60;26.00;;;;;;4994772;28;20092;-70
2022/03/22 07:39:56;;;;;;;;;;;13.90;24.40;;;;;;4994748;28;20008;-69
2022/03/22 07:42:24;;;;;;;;;;;13.80;24.20;;;;;;4994655;28;19945;-68
2022/03/22 07:44:49;;;;;;;;;;;13.70;23.30;;;;;;4995052;28;19910;-66
2022/03/22 07:47:15;;;;;;;;;;;13.90;24.60;;;;;;4995029;28;20428;-68
2022/03/22 07:55:10;;;;;;;;;;;14.10;22.80;;;;;;4994960;28;19948;-62
2022/03/22 07:57:35;;;;;;;;;;;13.90;22.50;;;;;;4994789;28;19953;-63
2022/03/22 08:00:02;;;;;;;;;;;13.70;22.20;;;;;;4994573;28;19940;-63
2022/03/22 08:02:27;;;;;;;;;;;13.50;23.20;;;;;;4994475;28;19960;-63
2022/03/22 08:04:53;;;;;;;;;;;13.40;23.20;;;;;;4994615;28;19945;-65
2022/03/22 08:07:18;;;;;;;;;;;13.50;23.30;;;;;;4993334;28;20277;-62
2022/03/22 08:09:45;;;;;;;;;;;13.70;23.00;;;;;;4994811;28;20346;-62
2022/03/22 08:12:12;;;;;;;;;;;13.90;23.00;;;;;;4994630;28;19914;-62
2022/03/22 08:14:38;;;;;;;;;;;14.00;23.00;;;;;;4994773;28;19910;-64
2022/03/22 08:17:03;;;;;;;;;;;13.90;22.20;;;;;;4994802;28;19921;-62
2022/03/22 08:19:29;;;;;;;;;;;13.90;22.10;;;;;;4995156;28;19955;-64
2022/03/22 08:21:55;;;;;;;;;;;13.90;22.40;;;;;;4994502;28;19909;-64
2022/03/22 08:24:21;;;;;;;;;;;13.90;22.50;;;;;;4994338;28;20354;-63
2022/03/22 08:26:47;;;;;;;;;;;13.90;22.10;;;;;;4994389;28;19910;-70
2022/03/22 08:29:12;;;;;;;;;;;13.70;22.10;;;;;;4994095;28;19929;-68
2022/03/22 08:31:38;;;;;;;;;;;13.80;22.80;;;;;;4993642;28;19956;-64
2022/03/22 08:34:04;;;;;;;;;;;13.90;22.10;;;;;;4994562;28;20001;-63
2022/03/22 08:36:29;;;;;;;;;;;14.00;21.90;;;;;;4994089;28;19914;-64
2022/03/22 08:38:55;;;;;;;;;;;14.00;22.40;;;;;;4994282;28;19918;-64
2022/03/22 08:41:20;;;;;;;;;;;13.90;21.70;;;;;;4994557;28;19910;-66
2022/03/22 08:43:46;;;;;;;;;;;13.80;21.80;;;;;;4994278;28;19997;-64
2022/03/22 08:46:14;;;;;;;;;;;13.80;22.00;;;;;;4994926;28;20273;-66
2022/03/22 08:48:39;;;;;;;;;;;13.80;22.20;;;;;;5000577;28;19971;-64
2022/03/22 08:51:05;;;;;;;;;;;13.80;21.90;;;;;;4994745;28;19914;-62
2022/03/22 08:53:31;;;;;;;;;;;13.90;21.90;;;;;;4994550;28;20369;-62
2022/03/22 08:55:56;;;;;;;;;;;13.90;21.80;;;;;;4994398;28;19916;-62
2022/03/22 08:58:22;;;;;;;;;;;14.00;21.80;;;;;;4993838;28;20008;-62
2022/03/22 09:00:48;;;;;;;;;;;14.10;22.00;;;;;;4994450;28;19964;-63
2022/03/22 09:03:14;;;;;;;;;;;14.10;21.80;;;;;;4992971;28;20326;-64
2022/03/22 09:08:44;;;;;;;;;;;14.20;21.80;;;;;;5011389;28;20124;-61
2022/03/22 09:11:10;;;;;;;;;;;14.20;22.00;;;;;;5011458;28;19945;-62
2022/03/22 09:13:37;;;;;;;;;;;14.30;21.70;;;;;;5011586;28;19914;-62
2022/03/22 09:16:03;;;;;;;;;;;14.40;21.60;;;;;;5011227;28;20358;-62
2022/03/22 09:18:29;;;;;;;;;;;14.30;21.60;;;;;;5011385;28;20420;-62
2022/03/22 09:20:55;;;;;;;;;;;14.20;22.10;;;;;;5011184;28;19913;-64
2022/03/22 09:23:21;;;;;;;;;;;14.40;22.30;;;;;;5011143;28;20297;-64
2022/03/22 09:25:47;;;;;;;;;;;14.30;21.50;;;;;;5011416;28;19910;-63
2022/03/22 09:28:12;;;;;;;;;;;14.30;22.00;;;;;;5011404;28;19910;-62
2022/03/22 09:30:39;;;;;;;;;;;14.40;21.80;;;;;;5011432;28;19913;-64
2022/03/22 09:33:05;;;;;;;;;;;14.40;21.60;;;;;;5011252;28;20412;-64
2022/03/22 09:35:31;;;;;;;;;;;14.40;22.30;;;;;;5011202;28;19944;-61
2022/03/22 09:37:57;;;;;;;;;;;14.30;22.00;;;;;;5010893;28;19921;-61
2022/03/22 09:40:23;;;;;;;;;;;14.40;21.80;;;;;;4996027;28;19917;-62
2022/03/22 09:42:49;;;;;;;;;;;14.40;21.60;;;;;;4993948;28;19996;-64
2022/03/22 09:45:17;;;;;;;;;;;14.30;21.80;;;;;;4993927;28;19918;-64
2022/03/22 09:47:44;;;;;;;;;;;14.40;21.80;;;;;;4993804;28;19909;-64
2022/03/22 09:50:10;;;;;;;;;;;14.50;22.20;;;;;;4993971;28;20057;-64
2022/03/22 09:52:36;;;;;;;;;;;14.50;21.80;;;;;;4997243;28;20285;-64
2022/03/22 09:55:02;;;;;;;;;;;14.50;22.30;;;;;;4997990;28;20234;-65
2022/03/22 09:57:28;;;;;;;;;;;14.60;22.20;;;;;;4997320;28;19917;-63
2022/03/22 09:59:54;;;;;;;;;;;14.70;21.70;;;;;;4997407;28;20024;-62
2022/03/22 10:02:29;;;;;;;;;;;14.60;21.10;;;;;;4997319;28;19910;-64
2022/03/22 10:04:55;;;;;;;;;;;14.60;21.80;;;;;;4997182;28;20000;-64
2022/03/22 10:07:22;;;;;;;;;;;14.80;21.10;;;;;;4997366;28;19945;-65
2022/03/22 10:09:51;;;;;;;;;;;14.80;21.50;;;;;;4997158;28;19925;-65
2022/03/22 10:12:30;;;;;;;;;;;14.90;21.70;;;;;;4997289;28;19916;-64
2022/03/22 10:15:08;;;;;;;;;;;15.00;21.20;;;;;;4997384;28;19910;-63
2022/03/22 10:17:34;;;;;;;;;;;15.00;20.90;;;;;;4997077;28;19945;-62
2022/03/22 10:20:00;;;;;;;;;;;15.10;21.50;;;;;;4996617;28;19917;-64
2022/03/22 10:22:26;;;;;;;;;;;15.20;21.40;;;;;;4996726;28;19913;-65
2022/03/22 10:24:53;;;;;;;;;;;15.20;21.50;;;;;;4996952;28;19909;-63
2022/03/22 10:27:26;;;;;;;;;;;15.30;21.10;;;;;;4996556;28;19936;-64
2022/03/22 10:29:52;;;;;;;;;;;15.60;20.60;;;;;;4996812;28;19926;-62
2022/03/22 10:32:19;;;;;;;;;;;15.60;21.10;;;;;;4996339;28;19922;-63
2022/03/22 10:34:45;;;;;;;;;;;15.70;20.70;;;;;;4996785;28;20366;-64
2022/03/22 10:37:10;;;;;;;;;;;15.80;20.70;;;;;;4996651;28;19964;-64
2022/03/22 10:39:39;;;;;;;;;;;16.10;20.90;;;;;;4996481;28;19990;-63
2022/03/22 10:42:06;;;;;;;;;;;16.20;21.50;;;;;;4996523;28;20381;-64
2022/03/22 10:44:36;;;;;;;;;;;16.20;19.90;;;;;;4996712;28;20300;-63
2022/03/22 10:47:02;;;;;;;;;;;16.10;20.30;;;;;;4996387;28;20333;-66
2022/03/22 10:49:28;;;;;;;;;;;16.30;20.90;;;;;;4996563;28;19918;-66
2022/03/22 10:51:56;;;;;;;;;;;16.30;20.10;;;;;;4996371;28;20421;-63
2022/03/22 10:54:21;;;;;;;;;;;16.30;20.40;;;;;;4996641;28;19910;-66
2022/03/22 10:56:47;;;;;;;;;;;16.50;20.50;;;;;;4996267;28;19956;-65
2022/03/22 10:59:14;;;;;;;;;;;16.50;20.80;;;;;;4996062;28;19910;-64
2022/03/22 11:01:42;;;;;;;;;;;16.50;20.00;;;;;;4996055;28;19917;-62
2022/03/22 11:04:08;;;;;;;;;;;16.50;20.40;;;;;;4996427;28;19942;-65
2022/03/22 11:06:34;;;;;;;;;;;16.60;19.80;;;;;;4996307;28;20014;-64
2022/03/22 11:09:00;;;;;;;;;;;16.40;20.20;;;;;;4995807;28;20045;-65
2022/03/22 11:11:28;;;;;;;;;;;16.40;19.60;;;;;;4995887;28;20420;-63
2022/03/22 11:13:54;;;;;;;;;;;16.50;19.10;;;;;;4995917;28;20267;-64
2022/03/22 11:16:20;;;;;;;;;;;16.40;19.90;;;;;;4995007;28;19917;-64
2022/03/22 11:18:46;;;;;;;;;;;16.50;20.20;;;;;;4996141;28;19910;-65
2022/03/22 11:21:15;;;;;;;;;;;16.70;20.00;;;;;;4995675;28;19910;-65
2022/03/22 11:23:42;;;;;;;;;;;16.80;20.40;;;;;;4995557;28;19910;-63
2022/03/22 11:26:12;;;;;;;;;;;16.90;19.90;;;;;;4995705;28;19936;-66
2022/03/22 11:28:38;;;;;;;;;;;17.10;19.80;;;;;;4995890;28;19918;-64
2022/03/22 11:31:05;;;;;;;;;;;17.00;19.30;;;;;;4998691;28;19920;-64
2022/03/22 11:36:15;;;;;;;;;;;17.20;19.50;;;;;;4995523;28;19941;-66
2022/03/22 11:38:41;;;;;;;;;;;17.30;18.90;;;;;;4995310;28;20297;-64
2022/03/22 11:44:22;;;;;;;;;;;17.10;19.50;;;;;;4990761;28;19964;-66
2022/03/22 11:47:08;;;;;;;;;;;17.20;18.20;;;;;;4992410;28;19910;-63
2022/03/22 11:50:09;;;;;;;;;;;17.20;18.80;;;;;;4999852;28;19941;-69
2022/03/22 11:52:43;;;;;;;;;;;17.50;18.50;;;;;;4981556;28;20263;-66
2022/03/22 11:55:20;;;;;;;;;;;17.70;17.50;;;;;;4992511;28;19910;-73
2022/03/22 11:57:46;;;;;;;;;;;17.70;18.50;;;;;;4995670;28;19914;-74
2022/03/22 12:00:13;;;;;;;;;;;17.80;18.00;;;;;;4996115;28;19910;-66
2022/03/22 12:02:40;;;;;;;;;;;17.70;18.30;;;;;;4992881;28;19956;-62
2022/03/22 12:05:06;;;;;;;;;;;17.70;15.80;;;;;;4995038;28;19914;-65
2022/03/22 12:07:34;;;;;;;;;;;17.70;15.80;;;;;;4994741;28;19933;-63
2022/03/22 12:10:07;;;;;;;;;;;17.80;16.40;;;;;;4994403;28;20341;-65
2022/03/22 12:12:33;;;;;;;;;;;17.90;16.60;;;;;;4994718;28;20437;-66
2022/03/22 12:15:03;;;;;;;;;;;18.10;17.60;;;;;;4995446;28;19917;-72
2022/03/22 12:17:29;;;;;;;;;;;18.10;17.80;;;;;;4995454;28;19910;-70
2022/03/22 12:20:03;;;;;;;;;;;18.10;18.30;;;;;;4995746;28;20353;-71
2022/03/22 12:22:29;;;;;;;;;;;18.00;17.70;;;;;;4994782;28;19910;-74
2022/03/22 12:24:59;;;;;;;;;;;17.90;16.40;;;;;;4994449;28;19921;-69
2022/03/22 12:27:26;;;;;;;;;;;18.00;14.40;;;;;;4994216;28;19980;-68
2022/03/22 12:29:52;;;;;;;;;;;18.10;14.20;;;;;;4993494;28;19930;-69
2022/03/22 12:32:20;;;;;;;;;;;17.90;15.10;;;;;;4993492;28;19914;-62
2022/03/22 12:34:46;;;;;;;;;;;18.10;15.30;;;;;;4993314;28;20372;-66
2022/03/22 12:37:13;;;;;;;;;;;18.20;14.70;;;;;;4993157;28;19964;-66
2022/03/22 12:39:41;;;;;;;;;;;18.30;14.80;;;;;;4991211;28;19913;-62
2022/03/22 12:42:07;;;;;;;;;;;18.50;14.50;;;;;;4994048;28;19916;-65
2022/03/22 12:44:33;;;;;;;;;;;18.70;14.80;;;;;;4994126;28;20007;-66
2022/03/22 12:46:59;;;;;;;;;;;18.50;15.40;;;;;;4993763;28;20382;-65
2022/03/22 12:49:25;;;;;;;;;;;18.20;16.10;;;;;;4994374;28;19961;-64
2022/03/22 12:51:50;;;;;;;;;;;18.00;16.80;;;;;;4994830;28;20326;-64
2022/03/22 12:54:19;;;;;;;;;;;18.00;17.90;;;;;;4995448;28;19916;-66
2022/03/22 12:56:48;;;;;;;;;;;18.00;17.90;;;;;;4993983;28;19935;-70
2022/03/22 12:59:18;;;;;;;;;;;18.20;17.20;;;;;;4993865;28;19910;-66
2022/03/22 13:01:43;;;;;;;;;;;18.20;17.90;;;;;;4993570;28;19941;-70
2022/03/22 13:04:09;;;;;;;;;;;18.30;18.10;;;;;;4993784;28;19909;-70
2022/03/22 13:06:36;;;;;;;;;;;18.20;17.90;;;;;;4993671;28;20009;-68
2022/03/22 13:11:45;;;;;;;;;;;18.20;18.60;;;;;;4991989;28;19945;-71
2022/03/22 13:16:56;;;;;;;;;;;18.30;17.90;;;;;;4974226;28;19933;-69
2022/03/22 13:19:22;;;;;;;;;;;18.50;18.50;;;;;;4974210;28;19910;-68
2022/03/22 13:21:47;;;;;;;;;;;18.40;16.90;;;;;;4988566;28;19909;-66
2022/03/22 13:24:20;;;;;;;;;;;18.40;17.20;;;;;;4993312;28;20008;-66
2022/03/22 13:26:52;;;;;;;;;;;18.50;18.90;;;;;;4992995;28;19909;-67
2022/03/22 13:29:20;;;;;;;;;;;18.50;22.80;;;;;;4992635;28;20436;-68
2022/03/22 13:31:59;;;;;;;;;;;18.00;29.00;;;;;;4985543;28;19917;-65
2022/03/22 13:34:26;;;;;;;;;;;17.50;31.30;;;;;;4983093;28;20386;-67
2022/03/22 13:37:02;;;;;;;;;;;17.10;32.20;;;;;;4977515;28;19918;-67
2022/03/22 13:39:28;;;;;;;;;;;16.90;33.30;;;;;;4996861;28;19997;-66
2022/03/22 13:42:03;;;;;;;;;;;16.90;32.30;;;;;;4994065;28;19945;-66
2022/03/22 13:44:29;;;;;;;;;;;17.00;33.00;;;;;;4994073;28;19910;-68
2022/03/22 13:46:54;;;;;;;;;;;17.00;34.90;;;;;;4994050;28;19962;-67
2022/03/22 13:49:23;;;;;;;;;;;16.80;35.20;;;;;;4997076;28;19914;-67
2022/03/22 13:51:49;;;;;;;;;;;17.00;35.50;;;;;;4996869;28;20425;-66
2022/03/22 13:54:16;;;;;;;;;;;17.00;34.40;;;;;;4997018;28;20022;-65
2022/03/22 13:56:42;;;;;;;;;;;17.00;34.60;;;;;;4996867;28;19961;-65
2022/03/22 13:59:10;;;;;;;;;;;16.90;34.80;;;;;;4997131;28;20016;-63
2022/03/22 14:01:37;;;;;;;;;;;17.00;35.20;;;;;;4996344;28;19921;-69
2022/03/22 14:04:03;;;;;;;;;;;16.70;35.60;;;;;;4996423;28;19910;-64
2022/03/22 14:06:29;;;;;;;;;;;16.80;35.50;;;;;;4996902;28;19910;-63
2022/03/22 14:08:54;;;;;;;;;;;16.70;36.50;;;;;;4997321;28;20400;-66
2022/03/22 14:11:20;;;;;;;;;;;16.70;36.60;;;;;;4996650;28;19913;-62
2022/03/22 14:13:45;;;;;;;;;;;16.70;36.70;;;;;;4995839;28;19914;-63
2022/03/22 14:16:11;;;;;;;;;;;16.70;36.60;;;;;;4996275;28;19910;-64
2022/03/22 14:18:36;;;;;;;;;;;16.60;36.60;;;;;;4996487;28;19997;-68
2022/03/22 14:21:02;;;;;;;;;;;16.70;36.20;;;;;;5002659;28;19965;-64
2022/03/22 14:23:28;;;;;;;;;;;16.50;35.70;;;;;;4987279;28;19914;-66
2022/03/22 14:25:56;;;;;;;;;;;16.30;35.90;;;;;;4995581;28;19917;-66
2022/03/22 14:28:25;;;;;;;;;;;16.30;35.60;;;;;;4996407;28;20404;-68
2022/03/22 14:30:53;;;;;;;;;;;15.90;36.30;;;;;;4996233;28;19914;-68
2022/03/22 14:33:18;;;;;;;;;;;15.60;37.60;;;;;;4995195;28;19976;-64
2022/03/22 14:35:54;;;;;;;;;;;15.70;37.80;;;;;;4994601;28;19918;-69
2022/03/22 14:38:20;;;;;;;;;;;15.90;36.60;;;;;;4993874;28;19928;-68
2022/03/22 14:40:46;;;;;;;;;;;16.00;36.10;;;;;;4995949;28;20001;-66
2022/03/22 14:43:12;;;;;;;;;;;16.10;34.50;;;;;;4996075;28;20357;-64
2022/03/22 14:45:45;;;;;;;;;;;16.10;34.10;;;;;;4995965;28;19941;-69
2022/03/22 14:48:11;;;;;;;;;;;16.10;34.90;;;;;;4996034;28;20009;-65
2022/03/22 14:50:37;;;;;;;;;;;16.10;35.20;;;;;;4995792;28;19914;-68
2022/03/22 14:55:48;;;;;;;;;;;16.20;35.60;;;;;;4994263;28;19956;-71
2022/03/22 15:00:58;;;;;;;;;;;16.10;34.50;;;;;;4996205;28;20316;-69
2022/03/22 15:03:26;;;;;;;;;;;16.00;33.30;;;;;;4995424;28;19910;-66
2022/03/22 15:05:53;;;;;;;;;;;15.90;32.40;;;;;;4995550;28;20020;-68